createdAt,value
2022-11-14T00:00:24.854Z,74.79
2022-11-14T00:02:27.775Z,75.24
2022-11-14T00:04:29.938Z,75.43
2022-11-14T00:06:32.389Z,75.79
2022-11-14T00:08:34.916Z,75.85
2022-11-14T00:10:36.627Z,75.77
2022-11-14T00:12:38.357Z,76.15
2022-11-14T00:14:40.157Z,76.07
2022-11-14T00:16:41.961Z,76.01
2022-11-14T00:18:43.636Z,75.34
2022-11-14T00:20:48.975Z,75.23
2022-11-14T00:22:50.800Z,75.12
2022-11-14T00:24:52.465Z,74.99
2022-11-14T00:26:54.296Z,74.98
2022-11-14T00:28:56.021Z,75.14
2022-11-14T00:30:57.762Z,75.50
2022-11-14T00:32:59.538Z,75.66
2022-11-14T00:35:01.195Z,76.04
2022-11-14T00:37:02.916Z,76.06
2022-11-14T00:39:05.000Z,76.09
2022-11-14T00:41:06.768Z,76.26
2022-11-14T00:43:08.462Z,76.40
2022-11-14T00:45:11.092Z,76.28
2022-11-14T00:47:12.821Z,76.27
2022-11-14T00:49:14.471Z,76.45
2022-11-14T00:51:16.221Z,76.39
2022-11-14T00:53:18.119Z,76.40
2022-11-14T00:55:19.745Z,76.45
2022-11-14T00:57:21.476Z,76.64
2022-11-14T00:59:23.145Z,76.66
2022-11-14T01:01:24.869Z,76.90
2022-11-14T01:03:26.560Z,76.83
2022-11-14T01:05:28.459Z,77.07
2022-11-14T01:07:30.186Z,76.98
2022-11-14T01:09:32.061Z,77.10
2022-11-14T01:11:33.845Z,76.91
2022-11-14T01:13:35.645Z,76.68
2022-11-14T01:15:48.130Z,76.63
2022-11-14T01:17:49.775Z,76.71
2022-11-14T01:19:51.500Z,76.74
2022-11-14T01:21:53.238Z,76.27
2022-11-14T01:23:54.918Z,76.31
2022-11-14T01:26:02.866Z,76.10
2022-11-14T01:28:15.724Z,76.31
2022-11-14T01:30:17.584Z,76.19
2022-11-14T01:32:19.310Z,76.14
2022-11-14T01:34:20.985Z,76.11
2022-11-14T01:36:22.666Z,76.14
2022-11-14T01:38:24.500Z,76.33
2022-11-14T01:40:27.141Z,76.14
2022-11-14T01:42:28.821Z,76.02
2022-11-14T01:44:40.781Z,75.99
2022-11-14T01:46:46.921Z,75.63
2022-11-14T01:48:57.257Z,75.35
2022-11-14T01:51:05.455Z,75.38
2022-11-14T01:53:07.230Z,75.37
2022-11-14T01:55:10.386Z,75.25
2022-11-14T01:57:14.516Z,75.44
2022-11-14T01:59:22.300Z,75.35
2022-11-14T02:01:25.957Z,75.35
2022-11-14T02:03:28.105Z,75.17
2022-11-14T02:05:31.216Z,75.31
2022-11-14T02:07:37.320Z,75.41
2022-11-14T02:09:43.243Z,75.49
2022-11-14T02:11:46.122Z,75.64
2022-11-14T02:13:48.029Z,75.62
2022-11-14T02:15:50.330Z,75.84
2022-11-14T02:17:52.222Z,75.72
2022-11-14T02:20:05.793Z,76.08
2022-11-14T02:22:07.530Z,76.12
2022-11-14T02:24:11.261Z,76.52
2022-11-14T02:26:12.955Z,76.64
2022-11-14T02:28:14.691Z,77.10
2022-11-14T02:30:20.030Z,77.33
2022-11-14T02:32:21.691Z,77.69
2022-11-14T02:34:23.445Z,77.50
2022-11-14T02:36:25.670Z,77.61
2022-11-14T02:38:27.653Z,77.58
2022-11-14T02:40:29.608Z,77.89
2022-11-14T02:42:31.382Z,77.79
2022-11-14T02:44:33.201Z,78.09
2022-11-14T02:46:35.110Z,78.07
2022-11-14T02:48:36.815Z,77.91
2022-11-14T02:50:38.540Z,78.24
2022-11-14T02:52:40.555Z,77.73
2022-11-14T02:54:42.410Z,77.91
2022-11-14T02:56:44.464Z,78.03
2022-11-14T02:58:46.335Z,78.14
2022-11-14T03:01:13.446Z,77.79
2022-11-14T03:03:10.054Z,77.91
2022-11-14T03:05:12.086Z,77.91
2022-11-14T03:07:13.900Z,78.01
2022-11-14T03:09:15.803Z,78.16
2022-11-14T03:11:17.656Z,77.76
2022-11-14T03:13:19.745Z,77.80
2022-11-14T03:15:21.605Z,77.68
2022-11-14T03:17:24.828Z,77.84
2022-11-14T03:19:26.849Z,77.62
2022-11-14T03:21:28.927Z,77.44
2022-11-14T03:23:30.726Z,77.44
2022-11-14T03:25:32.756Z,77.32
2022-11-14T03:27:34.607Z,77.32
2022-11-14T03:29:36.575Z,77.32
2022-11-14T03:31:38.418Z,77.26
2022-11-14T03:33:40.439Z,77.27
2022-11-14T03:35:44.045Z,77.41
2022-11-14T03:37:46.046Z,77.40
2022-11-14T03:39:47.815Z,77.28
2022-11-14T03:41:49.776Z,77.31
2022-11-14T03:43:51.768Z,77.31
2022-11-14T03:45:53.630Z,77.33
2022-11-14T03:47:55.737Z,77.52
2022-11-14T03:49:57.720Z,77.48
2022-11-14T03:51:59.455Z,77.46
2022-11-14T03:54:01.229Z,77.86
2022-11-14T03:56:03.269Z,78.02
2022-11-14T03:58:05.187Z,78.21
2022-11-14T04:00:09.245Z,78.45
2022-11-14T04:02:11.044Z,78.47
2022-11-14T04:04:13.504Z,78.63
2022-11-14T04:06:15.458Z,78.90
2022-11-14T04:08:17.686Z,78.63
2022-11-14T04:10:19.846Z,79.00
2022-11-14T04:12:21.865Z,79.19
2022-11-14T04:14:23.692Z,79.20
2022-11-14T04:16:25.705Z,78.97
2022-11-14T04:18:27.854Z,79.19
2022-11-14T04:20:29.770Z,79.33
2022-11-14T04:22:31.456Z,79.07
2022-11-14T04:24:33.156Z,78.90
2022-11-14T04:26:34.887Z,78.93
2022-11-14T04:28:36.616Z,78.68
2022-11-14T04:30:38.811Z,78.55
2022-11-14T04:32:40.575Z,78.55
2022-11-14T04:34:42.313Z,78.21
2022-11-14T04:36:44.513Z,78.13
2022-11-14T04:38:46.296Z,77.79
2022-11-14T04:40:51.109Z,78.11
2022-11-14T04:42:52.817Z,77.93
2022-11-14T04:44:54.672Z,77.89
2022-11-14T04:46:57.233Z,77.32
2022-11-14T04:48:58.926Z,77.54
2022-11-14T04:51:00.645Z,77.68
2022-11-14T04:53:02.461Z,77.35
2022-11-14T04:55:04.725Z,77.43
2022-11-14T04:57:06.508Z,77.37
2022-11-14T04:59:08.336Z,77.23
2022-11-14T05:01:11.654Z,76.95
2022-11-14T05:03:13.505Z,77.22
2022-11-14T05:05:15.616Z,77.12
2022-11-14T05:07:17.409Z,77.06
2022-11-14T05:09:19.132Z,77.20
2022-11-14T05:11:26.583Z,76.95
2022-11-14T05:13:31.006Z,76.67
2022-11-14T05:15:32.690Z,76.73
2022-11-14T05:17:34.362Z,76.77
2022-11-14T05:19:36.070Z,76.82
2022-11-14T05:21:37.767Z,77.08
2022-11-14T05:23:39.471Z,77.25
2022-11-14T05:25:41.201Z,76.93
2022-11-14T05:27:42.882Z,77.16
2022-11-14T05:29:44.586Z,77.07
2022-11-14T05:31:46.250Z,77.02
2022-11-14T05:33:48.393Z,76.87
2022-11-14T05:35:50.441Z,76.87
2022-11-14T05:37:56.049Z,76.90
2022-11-14T05:40:00.670Z,76.79
2022-11-14T05:42:02.452Z,77.25
2022-11-14T05:44:04.891Z,77.23
2022-11-14T05:46:11.176Z,77.51
2022-11-14T05:48:12.877Z,77.25
2022-11-14T05:50:14.626Z,77.48
2022-11-14T05:52:16.287Z,77.52
2022-11-14T05:54:17.991Z,77.39
2022-11-14T05:56:19.691Z,77.21
2022-11-14T05:58:22.177Z,76.72
2022-11-14T06:00:23.890Z,76.62
2022-11-14T06:02:25.625Z,76.40
2022-11-14T06:04:27.391Z,76.74
2022-11-14T06:06:29.087Z,76.75
2022-11-14T06:08:31.935Z,76.65
2022-11-14T06:10:35.807Z,76.69
2022-11-14T06:12:37.446Z,76.66
2022-11-14T06:14:39.132Z,76.54
2022-11-14T06:16:40.795Z,76.54
2022-11-14T06:18:43.223Z,76.59
2022-11-14T06:20:45.177Z,76.30
2022-11-14T06:22:47.174Z,76.47
2022-11-14T06:24:48.876Z,76.24
2022-11-14T06:26:50.553Z,76.18
2022-11-14T06:28:53.690Z,76.03
2022-11-14T06:31:00.033Z,75.77
2022-11-14T06:33:01.793Z,75.65
2022-11-14T06:35:03.826Z,75.30
2022-11-14T06:37:05.807Z,75.66
2022-11-14T06:39:07.578Z,75.52
2022-11-14T06:41:15.709Z,75.39
2022-11-14T06:43:17.363Z,75.33
2022-11-14T06:45:19.111Z,75.29
2022-11-14T06:47:20.916Z,75.08
2022-11-14T06:49:24.957Z,75.25
2022-11-14T06:51:26.944Z,75.21
2022-11-14T06:53:31.036Z,75.46
2022-11-14T06:55:32.927Z,75.69
2022-11-14T06:57:34.768Z,75.90
2022-11-14T06:59:36.756Z,75.80
2022-11-14T07:01:38.556Z,75.76
2022-11-14T07:03:41.245Z,75.92
2022-11-14T07:05:43.317Z,75.21
2022-11-14T07:07:45.318Z,75.08
2022-11-14T07:09:47.140Z,75.40
2022-11-14T07:11:48.919Z,75.52
2022-11-14T07:13:53.679Z,75.55
2022-11-14T07:15:55.728Z,75.48
2022-11-14T07:17:59.057Z,75.73
2022-11-14T07:20:01.025Z,76.10
2022-11-14T07:22:03.086Z,76.32
2022-11-14T07:24:05.339Z,76.15
2022-11-14T07:26:09.885Z,76.43
2022-11-14T07:28:14.426Z,76.31
2022-11-14T07:30:18.605Z,76.32
2022-11-14T07:32:20.445Z,76.29
2022-11-14T07:34:22.358Z,75.89
2022-11-14T07:36:24.595Z,75.76
2022-11-14T07:38:27.017Z,75.59
2022-11-14T07:40:29.203Z,75.35
2022-11-14T07:42:31.251Z,74.90
2022-11-14T07:44:33.038Z,74.95
2022-11-14T07:46:34.927Z,74.62
2022-11-14T07:48:36.859Z,74.73
2022-11-14T07:50:38.829Z,74.81
2022-11-14T07:52:42.709Z,74.80
2022-11-14T07:54:44.519Z,75.20
2022-11-14T07:56:46.427Z,75.24
2022-11-14T07:58:48.434Z,75.89
2022-11-14T08:00:50.306Z,76.10
2022-11-14T08:02:52.279Z,76.05
2022-11-14T08:04:54.081Z,76.01
2022-11-14T08:06:56.051Z,76.29
2022-11-14T08:08:58.054Z,76.05
2022-11-14T08:11:00.647Z,76.62
2022-11-14T08:13:30.271Z,76.69
2022-11-14T08:15:27.850Z,76.57
2022-11-14T08:17:29.745Z,76.52
2022-11-14T08:19:34.389Z,76.42
2022-11-14T08:21:36.768Z,76.76
2022-11-14T08:23:39.006Z,76.23
2022-11-14T08:25:41.831Z,76.66
2022-11-14T08:27:46.867Z,76.79
2022-11-14T08:29:49.056Z,77.14
2022-11-14T08:31:53.528Z,77.45
2022-11-14T08:33:59.363Z,77.76
2022-11-14T08:36:04.729Z,78.01
2022-11-14T08:38:06.577Z,77.96
2022-11-14T08:40:10.987Z,77.95
2022-11-14T08:42:12.959Z,78.30
2022-11-14T08:44:14.874Z,78.58
2022-11-14T08:46:16.757Z,78.12
2022-11-14T08:48:18.709Z,78.25
2022-11-14T08:50:20.616Z,78.27
2022-11-14T08:52:23.207Z,78.72
2022-11-14T08:54:25.129Z,78.85
2022-11-14T08:56:26.986Z,78.83
2022-11-14T08:58:31.592Z,78.68
2022-11-14T09:00:33.938Z,78.64
2022-11-14T09:02:35.824Z,78.16
2022-11-14T09:04:38.462Z,78.40
2022-11-14T09:06:40.641Z,78.48
2022-11-14T09:08:43.005Z,78.70
2022-11-14T09:10:45.557Z,78.59
2022-11-14T09:12:47.497Z,78.93
2022-11-14T09:14:49.510Z,78.81
2022-11-14T09:16:51.615Z,78.96
2022-11-14T09:18:53.587Z,79.12
2022-11-14T09:21:02.226Z,79.27
2022-11-14T09:23:04.890Z,79.27
2022-11-14T09:25:08.177Z,79.29
2022-11-14T09:27:09.991Z,79.05
2022-11-14T09:29:11.926Z,78.89
2022-11-14T09:31:15.517Z,78.63
2022-11-14T09:33:17.677Z,78.82
2022-11-14T09:35:19.656Z,78.71
2022-11-14T09:37:21.616Z,78.96
2022-11-14T09:39:23.555Z,78.75
2022-11-14T09:41:32.256Z,78.85
2022-11-14T09:43:44.435Z,79.09
2022-11-14T09:45:51.436Z,79.16
2022-11-14T09:48:04.404Z,79.35
2022-11-14T09:50:08.986Z,79.27
2022-11-14T09:52:29.930Z,79.54
2022-11-14T09:54:44.247Z,79.02
2022-11-14T09:56:46.224Z,79.36
2022-11-14T09:58:48.131Z,79.27
2022-11-14T10:00:58.659Z,79.76
2022-11-14T10:03:21.843Z,79.68
2022-11-14T10:05:38.248Z,79.49
2022-11-14T10:07:57.001Z,79.67
2022-11-14T10:10:14.562Z,79.39
2022-11-14T10:12:23.909Z,79.28
2022-11-14T10:14:36.984Z,78.62
2022-11-14T10:16:54.603Z,78.40
2022-11-14T10:19:02.986Z,78.58
2022-11-14T10:21:18.447Z,78.58
2022-11-14T10:23:30.584Z,78.27
2022-11-14T10:25:44.255Z,78.24
2022-11-14T10:28:06.260Z,78.26
2022-11-14T10:30:12.787Z,78.90
2022-11-14T10:32:21.411Z,79.32
2022-11-14T10:34:32.957Z,79.79
2022-11-14T10:36:54.788Z,80.20
2022-11-14T10:39:11.070Z,80.54
2022-11-14T10:41:34.488Z,80.58
2022-11-14T10:43:43.945Z,80.66
2022-11-14T10:45:52.713Z,80.68
2022-11-14T10:48:00.652Z,80.35
2022-11-14T10:50:16.272Z,80.53
2022-11-14T10:52:22.852Z,81.25
2022-11-14T10:54:35.145Z,81.13
2022-11-14T10:56:51.035Z,81.52
2022-11-14T10:58:52.885Z,81.45
2022-11-14T11:00:54.945Z,81.34
2022-11-14T11:02:57.875Z,81.42
2022-11-14T11:05:14.950Z,81.28
2022-11-14T11:07:31.923Z,81.37
2022-11-14T11:09:46.276Z,81.58
2022-11-14T11:11:59.078Z,81.79
2022-11-14T11:14:01.748Z,81.73
2022-11-14T11:16:05.262Z,82.16
2022-11-14T11:18:32.918Z,82.12
2022-11-14T11:20:38.830Z,81.51
2022-11-14T11:22:40.976Z,81.44
2022-11-14T11:24:44.278Z,81.51
2022-11-14T11:26:46.225Z,81.30
2022-11-14T11:29:03.527Z,81.08
2022-11-14T11:31:08.420Z,80.93
2022-11-14T11:33:20.445Z,81.04
2022-11-14T11:35:22.958Z,80.79
2022-11-14T11:39:42.951Z,80.29
2022-11-14T11:42:08.771Z,79.69
2022-11-14T11:44:15.530Z,79.86
2022-11-14T11:46:26.906Z,80.05
2022-11-14T11:48:38.069Z,79.45
2022-11-14T11:50:41.526Z,78.94
2022-11-14T11:52:43.976Z,78.73
2022-11-14T11:55:05.297Z,78.44
2022-11-14T11:57:21.464Z,78.38
2022-11-14T11:59:38.421Z,78.15
2022-11-14T12:01:40.479Z,78.02
2022-11-14T12:03:48.663Z,77.63
2022-11-14T12:05:58.925Z,78.10
2022-11-14T12:08:04.796Z,77.96
2022-11-14T12:10:17.945Z,77.53
2022-11-14T12:12:49.257Z,77.31
2022-11-14T12:15:08.860Z,77.21
2022-11-14T12:17:22.687Z,77.35
2022-11-14T12:19:47.514Z,77.59
2022-11-14T12:21:58.906Z,77.30
2022-11-14T12:24:03.247Z,77.75
2022-11-14T12:26:24.399Z,77.49
2022-11-14T12:28:37.378Z,77.78
2022-11-14T12:30:42.269Z,77.84
2022-11-14T12:32:53.556Z,78.14
2022-11-14T12:34:55.931Z,78.26
2022-11-14T12:36:58.646Z,78.26
2022-11-14T12:39:02.733Z,78.26
2022-11-14T12:41:07.785Z,77.73
2022-11-14T12:43:34.762Z,77.71
2022-11-14T12:45:41.990Z,77.51
2022-11-14T12:48:13.567Z,77.70
2022-11-14T12:50:30.076Z,77.01
2022-11-14T12:52:42.600Z,77.24
2022-11-14T12:54:49.539Z,76.97
2022-11-14T12:57:00.042Z,77.06
2022-11-14T12:59:19.867Z,77.61
2022-11-14T13:01:31.661Z,77.39
2022-11-14T13:03:53.368Z,77.59
2022-11-14T13:06:05.529Z,77.85
2022-11-14T13:08:22.466Z,77.61
2022-11-14T13:10:31.171Z,77.25
2022-11-14T13:12:44.857Z,77.32
2022-11-14T13:15:00.829Z,77.26
2022-11-14T13:17:31.787Z,76.75
2022-11-14T13:19:42.748Z,76.80
2022-11-14T13:22:04.608Z,76.54
2022-11-14T13:24:07.930Z,75.69
2022-11-14T13:26:10.797Z,75.41
2022-11-14T13:28:32.045Z,74.39
2022-11-14T13:30:53.086Z,73.75
2022-11-14T13:32:56.071Z,73.34
2022-11-14T13:35:07.337Z,71.53
2022-11-14T13:37:32.876Z,71.69
2022-11-14T13:39:54.061Z,71.36
2022-11-14T13:42:03.351Z,71.23
2022-11-14T13:44:16.085Z,71.60
2022-11-14T13:46:30.535Z,71.63
2022-11-14T13:48:47.323Z,71.70
2022-11-14T13:50:53.094Z,71.77
2022-11-14T13:52:55.727Z,72.18
2022-11-14T13:54:58.957Z,72.08
2022-11-14T13:57:14.996Z,72.21
2022-11-14T13:59:26.938Z,71.96
2022-11-14T14:01:29.918Z,72.44
2022-11-14T14:03:42.019Z,72.24
2022-11-14T14:06:01.081Z,72.15
2022-11-14T14:08:15.681Z,72.23
2022-11-14T14:10:36.930Z,72.21
2022-11-14T14:13:01.479Z,71.85
2022-11-14T14:15:12.679Z,72.03
2022-11-14T14:17:23.118Z,72.27
2022-11-14T14:19:44.900Z,72.34
2022-11-14T14:22:00.689Z,72.17
2022-11-14T14:24:15.248Z,72.86
2022-11-14T14:26:25.442Z,72.44
2022-11-14T14:28:41.617Z,72.34
2022-11-14T14:31:10.991Z,71.46
2022-11-14T14:33:15.162Z,71.26
2022-11-14T14:35:26.318Z,71.03
2022-11-14T14:37:29.900Z,70.72
2022-11-14T14:39:31.764Z,70.31
2022-11-14T14:41:35.116Z,70.72
2022-11-14T14:43:37.342Z,70.84
2022-11-14T14:45:51.911Z,70.92
2022-11-14T14:48:03.426Z,70.69
2022-11-14T14:50:16.944Z,70.86
2022-11-14T14:52:21.161Z,70.96
2022-11-14T14:54:27.234Z,70.89
2022-11-14T14:56:29.691Z,70.98
2022-11-14T14:58:34.203Z,70.92
2022-11-14T15:00:37.060Z,70.21
2022-11-14T15:02:39.253Z,70.43
2022-11-14T15:04:41.991Z,70.54
2022-11-14T15:06:47.326Z,70.05
2022-11-14T15:08:50.111Z,70.96
2022-11-14T15:10:56.819Z,71.05
2022-11-14T15:13:00.098Z,71.10
2022-11-14T15:15:03.657Z,70.89
2022-11-14T15:17:06.792Z,70.77
2022-11-14T15:19:14.188Z,70.88
2022-11-14T15:21:22.345Z,71.36
2022-11-14T15:23:24.742Z,71.16
2022-11-14T15:25:27.361Z,71.37
2022-11-14T15:27:31.122Z,71.12
2022-11-14T15:29:33.472Z,71.72
2022-11-14T15:31:37.190Z,71.62
2022-11-14T15:33:42.513Z,71.96
2022-11-14T15:35:44.625Z,71.83
2022-11-14T15:38:37.074Z,71.91
2022-11-14T15:40:28.413Z,71.57
2022-11-14T15:42:31.222Z,71.70
2022-11-14T15:44:34.931Z,71.66
2022-11-14T15:46:48.225Z,72.11
2022-11-14T15:48:50.633Z,72.20
2022-11-14T15:50:52.951Z,71.87
2022-11-14T15:53:00.660Z,72.56
2022-11-14T15:55:04.124Z,72.25
2022-11-14T15:57:13.501Z,72.29
2022-11-14T15:59:15.742Z,72.04
2022-11-14T16:01:24.328Z,72.14
2022-11-14T16:03:26.674Z,72.59
2022-11-14T16:05:33.436Z,72.74
2022-11-14T16:07:38.026Z,72.85
2022-11-14T16:09:40.928Z,73.17
2022-11-14T16:11:46.340Z,73.35
2022-11-14T16:13:51.021Z,74.13
2022-11-14T16:15:53.519Z,73.91
2022-11-14T16:17:56.146Z,73.64
2022-11-14T16:19:59.468Z,73.78
2022-11-14T16:22:03.264Z,74.23
2022-11-14T16:24:06.607Z,74.24
2022-11-14T16:26:09.284Z,74.48
2022-11-14T16:28:11.536Z,74.30
2022-11-14T16:30:15.966Z,74.51
2022-11-14T16:32:18.776Z,74.52
2022-11-14T16:34:27.068Z,74.87
2022-11-14T16:36:29.332Z,74.93
2022-11-14T16:38:31.623Z,75.26
2022-11-14T16:40:35.110Z,74.93
2022-11-14T16:42:37.721Z,75.41
2022-11-14T16:44:42.941Z,75.37
2022-11-14T16:46:48.996Z,75.43
2022-11-14T16:48:52.215Z,75.30
2022-11-14T16:50:56.976Z,75.63
2022-11-14T16:52:59.635Z,75.53
2022-11-14T16:55:02.184Z,75.45
2022-11-14T16:57:04.533Z,76.20
2022-11-14T16:59:07.469Z,75.53
2022-11-14T17:01:20.098Z,76.07
2022-11-14T17:03:23.475Z,76.04
2022-11-14T17:05:26.276Z,75.91
2022-11-14T17:07:33.139Z,76.61
2022-11-14T17:09:35.600Z,76.40
2022-11-14T17:11:38.031Z,76.28
2022-11-14T17:13:40.414Z,76.47
2022-11-14T17:15:42.642Z,77.14
2022-11-14T17:17:51.129Z,76.72
2022-11-14T17:19:53.772Z,77.14
2022-11-14T17:21:56.231Z,77.31
2022-11-14T17:24:01.811Z,76.96
2022-11-14T17:26:07.111Z,77.48
2022-11-14T17:28:09.785Z,77.33
2022-11-14T17:30:13.272Z,77.88
2022-11-14T17:32:15.752Z,77.54
2022-11-14T17:34:18.472Z,77.84
2022-11-14T17:36:21.728Z,77.62
2022-11-14T17:38:24.141Z,77.67
2022-11-14T17:40:26.989Z,77.44
2022-11-14T17:42:29.543Z,77.57
2022-11-14T17:44:32.117Z,77.39
2022-11-14T17:46:35.249Z,77.38
2022-11-14T17:48:38.762Z,77.91
2022-11-14T17:50:43.449Z,77.92
2022-11-14T17:52:46.285Z,77.43
2022-11-14T17:54:48.954Z,77.58
2022-11-14T17:56:54.884Z,77.63
2022-11-14T17:58:58.401Z,77.65
2022-11-14T18:01:01.681Z,77.83
2022-11-14T18:03:05.149Z,78.15
2022-11-14T18:05:08.277Z,78.04
2022-11-14T18:07:10.796Z,78.19
2022-11-14T18:09:14.698Z,78.03
2022-11-14T18:11:18.112Z,78.19
2022-11-14T18:13:20.439Z,78.32
2022-11-14T18:15:27.714Z,78.20
2022-11-14T18:17:32.259Z,78.37
2022-11-14T18:19:35.297Z,78.27
2022-11-14T18:21:39.063Z,78.58
2022-11-14T18:23:45.209Z,78.11
2022-11-14T18:25:49.863Z,78.24
2022-11-14T18:27:52.188Z,78.23
2022-11-14T18:30:03.886Z,78.37
2022-11-14T18:32:10.734Z,77.97
2022-11-14T18:34:13.716Z,78.28
2022-11-14T18:36:16.980Z,78.11
2022-11-14T18:38:19.635Z,78.57
2022-11-14T18:40:22.474Z,78.42
2022-11-14T18:42:25.010Z,78.18
2022-11-14T18:44:28.974Z,77.74
2022-11-14T18:46:37.170Z,77.67
2022-11-14T18:48:43.868Z,77.46
2022-11-14T18:50:46.224Z,77.11
2022-11-14T18:52:48.475Z,77.18
2022-11-14T18:54:50.886Z,76.70
2022-11-14T18:56:53.278Z,76.51
2022-11-14T18:58:57.046Z,76.89
2022-11-14T19:00:59.414Z,76.41
2022-11-14T19:03:06.039Z,76.18
2022-11-14T19:05:09.587Z,76.50
2022-11-14T19:07:12.472Z,76.36
2022-11-14T19:09:18.623Z,76.09
2022-11-14T19:11:30.843Z,75.89
2022-11-14T19:13:34.507Z,75.85
2022-11-14T19:15:38.389Z,74.61
2022-11-14T19:17:40.949Z,74.95
2022-11-14T19:19:43.051Z,74.88
2022-11-14T19:21:48.272Z,74.53
2022-11-14T19:23:51.284Z,74.63
2022-11-14T19:25:58.934Z,74.55
2022-11-14T19:28:01.019Z,74.42
2022-11-14T19:30:04.130Z,74.99
2022-11-14T19:32:07.030Z,74.54
2022-11-14T19:34:10.399Z,74.98
2022-11-14T19:36:18.821Z,75.22
2022-11-14T19:38:29.986Z,75.31
2022-11-14T19:40:32.371Z,75.46
2022-11-14T19:42:34.468Z,75.38
2022-11-14T19:44:36.812Z,75.51
2022-11-14T19:46:43.005Z,75.55
2022-11-14T19:48:49.898Z,75.48
2022-11-14T19:51:01.517Z,75.07
2022-11-14T19:53:04.729Z,75.74
2022-11-14T19:55:07.205Z,75.32
2022-11-14T19:57:09.523Z,75.33
2022-11-14T19:59:15.442Z,75.57
2022-11-14T20:01:22.002Z,75.04
2022-11-14T20:03:23.964Z,75.48
2022-11-14T20:05:26.067Z,75.05
2022-11-14T20:07:28.799Z,75.08
2022-11-14T20:09:30.950Z,75.54
2022-11-14T20:11:33.565Z,75.46
2022-11-14T20:13:38.350Z,75.29
2022-11-14T20:15:40.545Z,75.57
2022-11-14T20:17:42.657Z,75.43
2022-11-14T20:19:44.679Z,74.94
2022-11-14T20:21:46.909Z,75.07
2022-11-14T20:23:49.359Z,75.18
2022-11-14T20:25:56.170Z,75.09
2022-11-14T20:27:58.257Z,75.05
2022-11-14T20:30:00.253Z,75.29
2022-11-14T20:32:03.533Z,75.29
2022-11-14T20:34:05.656Z,75.74
2022-11-14T20:36:11.327Z,75.21
2022-11-14T20:38:13.348Z,74.73
2022-11-14T20:40:15.623Z,74.69
2022-11-14T20:42:20.527Z,74.61
2022-11-14T20:44:22.842Z,74.38
2022-11-14T20:46:24.974Z,74.15
2022-11-14T20:48:29.789Z,74.34
2022-11-14T20:50:31.552Z,74.41
2022-11-14T20:52:33.255Z,74.24
2022-11-14T20:54:34.923Z,74.27
2022-11-14T20:56:38.176Z,74.53
2022-11-14T20:58:43.892Z,73.63
2022-11-14T21:00:45.601Z,73.62
2022-11-14T21:02:49.055Z,73.32
2022-11-14T21:04:50.860Z,73.14
2022-11-14T21:06:52.709Z,73.05
2022-11-14T21:08:54.616Z,72.22
2022-11-14T21:11:02.403Z,71.96
2022-11-14T21:13:26.830Z,71.38
2022-11-14T21:15:28.442Z,71.29
2022-11-14T21:17:31.722Z,71.28
2022-11-14T21:19:33.431Z,71.34
2022-11-14T21:21:37.592Z,71.32
2022-11-14T21:23:39.684Z,71.50
2022-11-14T21:25:41.802Z,71.82
2022-11-14T21:27:44.766Z,71.57
2022-11-14T21:29:46.611Z,71.63
2022-11-14T21:31:48.403Z,71.78
2022-11-14T21:33:52.685Z,71.30
2022-11-14T21:35:55.076Z,70.93
2022-11-14T21:37:56.704Z,70.80
2022-11-14T21:39:58.609Z,70.88
2022-11-14T21:42:00.236Z,70.90
2022-11-14T21:44:03.619Z,71.11
2022-11-14T21:46:07.335Z,71.26
2022-11-14T21:48:09.060Z,71.32
2022-11-14T21:50:10.693Z,71.48
2022-11-14T21:52:12.312Z,71.28
2022-11-14T21:54:14.152Z,71.31
2022-11-14T21:56:22.381Z,71.76
2022-11-14T21:58:24.048Z,71.07
2022-11-14T22:00:25.805Z,70.64
2022-11-14T22:02:50.176Z,70.29
2022-11-14T22:04:51.817Z,70.28
2022-11-14T22:06:54.390Z,69.24
2022-11-14T22:08:56.141Z,69.39
2022-11-14T22:11:01.435Z,68.71
2022-11-14T22:13:03.091Z,68.24
2022-11-14T22:15:05.284Z,67.53
2022-11-14T22:17:06.973Z,66.73
2022-11-14T22:19:08.651Z,66.30
2022-11-14T22:21:10.673Z,66.29
2022-11-14T22:23:12.383Z,66.44
2022-11-14T22:25:14.493Z,65.94
2022-11-14T22:27:16.133Z,64.94
2022-11-14T22:29:17.798Z,64.78
2022-11-14T22:31:24.058Z,65.23
2022-11-14T22:33:25.716Z,64.69
2022-11-14T22:35:27.583Z,65.05
2022-11-14T22:37:29.486Z,64.85
2022-11-14T22:39:31.215Z,64.31
2022-11-14T22:41:33.837Z,63.99
2022-11-14T22:43:35.659Z,64.17
2022-11-14T22:45:37.329Z,64.27
2022-11-14T22:47:38.992Z,64.32
2022-11-14T22:49:40.674Z,64.08
2022-11-14T22:51:42.324Z,64.26
2022-11-14T22:53:48.243Z,64.26
2022-11-14T22:55:49.958Z,64.18
2022-11-14T22:57:51.682Z,64.34
2022-11-14T22:59:53.669Z,64.42
2022-11-14T23:01:56.901Z,64.50
2022-11-14T23:04:01.609Z,64.65
2022-11-14T23:06:14.127Z,64.59
2022-11-14T23:08:17.895Z,64.37
2022-11-14T23:10:19.734Z,64.38
2022-11-14T23:12:21.728Z,64.40
2022-11-14T23:14:23.389Z,64.44
2022-11-14T23:16:31.100Z,64.60
2022-11-14T23:18:32.830Z,64.40
2022-11-14T23:20:36.135Z,64.85
2022-11-14T23:22:40.619Z,64.69
2022-11-14T23:24:42.742Z,64.55
2022-11-14T23:26:44.838Z,64.76
2022-11-14T23:28:46.562Z,64.37
2022-11-14T23:30:48.284Z,64.34
2022-11-14T23:32:50.009Z,64.21
2022-11-14T23:34:51.713Z,64.03
2022-11-14T23:36:53.369Z,63.97
2022-11-14T23:38:55.104Z,63.39
2022-11-14T23:41:01.527Z,63.24
2022-11-14T23:43:03.384Z,63.15
2022-11-14T23:45:05.513Z,63.32
2022-11-14T23:47:07.225Z,62.94
2022-11-14T23:49:08.931Z,63.03
2022-11-14T23:51:11.581Z,62.96
2022-11-14T23:53:13.326Z,62.85
2022-11-14T23:55:15.129Z,62.49
2022-11-14T23:57:16.987Z,62.50
2022-11-14T23:59:19.014Z,62.55
